sensor_id;sensor_type;location;lat;lon;timestamp;P1;durP1;ratioP1;P2;durP2;ratioP2
20154;SDS011;10238;49.556;10.956;2022-11-24T00:00:49;11.32;;;7.63;;
20154;SDS011;10238;49.556;10.956;2022-11-24T00:03:38;11.13;;;7.65;;
20154;SDS011;10238;49.556;10.956;2022-11-24T00:06:40;11.43;;;8.10;;
20154;SDS011;10238;49.556;10.956;2022-11-24T00:09:56;9.93;;;7.18;;
20154;SDS011;10238;49.556;10.956;2022-11-24T00:12:45;13.07;;;7.88;;
20154;SDS011;10238;49.556;10.956;2022-11-24T00:15:35;10.05;;;6.97;;
20154;SDS011;10238;49.556;10.956;2022-11-24T00:18:23;9.40;;;7.00;;
20154;SDS011;10238;49.556;10.956;2022-11-24T00:21:38;8.88;;;6.60;;
20154;SDS011;10238;49.556;10.956;2022-11-24T00:24:32;12.18;;;6.72;;
20154;SDS011;10238;49.556;10.956;2022-11-24T00:27:32;6.88;;;5.30;;
20154;SDS011;10238;49.556;10.956;2022-11-24T00:30:22;7.70;;;5.35;;
20154;SDS011;10238;49.556;10.956;2022-11-24T00:33:19;8.85;;;5.18;;
20154;SDS011;10238;49.556;10.956;2022-11-24T00:36:51;7.95;;;4.05;;
20154;SDS011;10238;49.556;10.956;2022-11-24T00:40:12;7.00;;;4.57;;
20154;SDS011;10238;49.556;10.956;2022-11-24T00:47:10;4.63;;;3.63;;
20154;SDS011;10238;49.556;10.956;2022-11-24T00:49:58;6.65;;;4.00;;
20154;SDS011;10238;49.556;10.956;2022-11-24T00:52:50;4.65;;;3.90;;
20154;SDS011;10238;49.556;10.956;2022-11-24T00:55:53;5.75;;;4.07;;
20154;SDS011;10238;49.556;10.956;2022-11-24T00:58:41;6.72;;;3.60;;
20154;SDS011;10238;49.556;10.956;2022-11-24T01:02:21;6.03;;;3.03;;
20154;SDS011;10238;49.556;10.956;2022-11-24T01:05:37;5.97;;;3.20;;
20154;SDS011;10238;49.556;10.956;2022-11-24T01:15:40;5.72;;;2.55;;
20154;SDS011;10238;49.556;10.956;2022-11-24T01:18:28;5.35;;;2.78;;
20154;SDS011;10238;49.556;10.956;2022-11-24T01:21:18;5.40;;;2.97;;
20154;SDS011;10238;49.556;10.956;2022-11-24T01:24:09;7.88;;;2.90;;
20154;SDS011;10238;49.556;10.956;2022-11-24T01:27:07;5.38;;;2.83;;
20154;SDS011;10238;49.556;10.956;2022-11-24T01:30:16;5.30;;;3.72;;
20154;SDS011;10238;49.556;10.956;2022-11-24T01:33:13;7.78;;;2.30;;
20154;SDS011;10238;49.556;10.956;2022-11-24T01:36:16;3.80;;;2.60;;
20154;SDS011;10238;49.556;10.956;2022-11-24T01:39:04;5.40;;;2.70;;
20154;SDS011;10238;49.556;10.956;2022-11-24T01:41:54;6.68;;;2.75;;
20154;SDS011;10238;49.556;10.956;2022-11-24T01:44:44;4.88;;;2.35;;
20154;SDS011;10238;49.556;10.956;2022-11-24T01:47:37;4.63;;;2.20;;
20154;SDS011;10238;49.556;10.956;2022-11-24T01:54:31;6.60;;;2.20;;
20154;SDS011;10238;49.556;10.956;2022-11-24T01:57:29;5.22;;;2.67;;
20154;SDS011;10238;49.556;10.956;2022-11-24T02:00:55;4.88;;;2.20;;
20154;SDS011;10238;49.556;10.956;2022-11-24T02:04:09;5.25;;;2.17;;
20154;SDS011;10238;49.556;10.956;2022-11-24T02:07:03;7.40;;;2.40;;
20154;SDS011;10238;49.556;10.956;2022-11-24T02:09:54;8.23;;;2.53;;
20154;SDS011;10238;49.556;10.956;2022-11-24T02:12:55;4.75;;;2.30;;
20154;SDS011;10238;49.556;10.956;2022-11-24T02:15:46;7.78;;;2.67;;
20154;SDS011;10238;49.556;10.956;2022-11-24T02:18:41;4.80;;;2.10;;
20154;SDS011;10238;49.556;10.956;2022-11-24T02:21:54;4.47;;;2.20;;
20154;SDS011;10238;49.556;10.956;2022-11-24T02:24:45;5.97;;;2.10;;
20154;SDS011;10238;49.556;10.956;2022-11-24T02:27:37;5.18;;;2.10;;
20154;SDS011;10238;49.556;10.956;2022-11-24T02:30:38;9.18;;;2.60;;
20154;SDS011;10238;49.556;10.956;2022-11-24T02:33:26;8.65;;;2.13;;
20154;SDS011;10238;49.556;10.956;2022-11-24T02:36:15;5.72;;;2.22;;
20154;SDS011;10238;49.556;10.956;2022-11-24T02:39:04;4.00;;;2.08;;
20154;SDS011;10238;49.556;10.956;2022-11-24T02:41:55;12.60;;;2.83;;
20154;SDS011;10238;49.556;10.956;2022-11-24T02:44:49;14.18;;;2.60;;
20154;SDS011;10238;49.556;10.956;2022-11-24T02:47:41;8.15;;;2.53;;
20154;SDS011;10238;49.556;10.956;2022-11-24T02:50:33;7.40;;;2.40;;
20154;SDS011;10238;49.556;10.956;2022-11-24T02:53:22;6.75;;;2.78;;
20154;SDS011;10238;49.556;10.956;2022-11-24T02:56:12;6.25;;;2.60;;
20154;SDS011;10238;49.556;10.956;2022-11-24T02:59:00;6.13;;;2.38;;
20154;SDS011;10238;49.556;10.956;2022-11-24T03:01:50;4.68;;;2.30;;
20154;SDS011;10238;49.556;10.956;2022-11-24T03:04:40;6.93;;;2.40;;
20154;SDS011;10238;49.556;10.956;2022-11-24T03:07:31;8.35;;;2.58;;
20154;SDS011;10238;49.556;10.956;2022-11-24T03:10:19;7.97;;;2.10;;
20154;SDS011;10238;49.556;10.956;2022-11-24T03:13:11;7.43;;;2.63;;
20154;SDS011;10238;49.556;10.956;2022-11-24T03:15:59;8.68;;;2.45;;
20154;SDS011;10238;49.556;10.956;2022-11-24T03:18:50;6.78;;;2.35;;
20154;SDS011;10238;49.556;10.956;2022-11-24T03:21:38;5.65;;;2.30;;
20154;SDS011;10238;49.556;10.956;2022-11-24T03:24:30;4.80;;;2.05;;
20154;SDS011;10238;49.556;10.956;2022-11-24T03:27:19;4.93;;;2.42;;
20154;SDS011;10238;49.556;10.956;2022-11-24T03:30:07;5.78;;;2.53;;
20154;SDS011;10238;49.556;10.956;2022-11-24T03:32:56;10.43;;;2.28;;
20154;SDS011;10238;49.556;10.956;2022-11-24T03:35:46;5.70;;;2.10;;
20154;SDS011;10238;49.556;10.956;2022-11-24T03:38:35;14.10;;;2.72;;
20154;SDS011;10238;49.556;10.956;2022-11-24T03:41:23;7.05;;;2.60;;
20154;SDS011;10238;49.556;10.956;2022-11-24T03:44:11;9.10;;;2.53;;
20154;SDS011;10238;49.556;10.956;2022-11-24T03:46:59;3.70;;;1.63;;
20154;SDS011;10238;49.556;10.956;2022-11-24T03:49:47;5.55;;;2.60;;
20154;SDS011;10238;49.556;10.956;2022-11-24T03:52:37;9.95;;;2.40;;
20154;SDS011;10238;49.556;10.956;2022-11-24T03:55:27;6.22;;;2.03;;
20154;SDS011;10238;49.556;10.956;2022-11-24T03:58:17;7.05;;;2.22;;
20154;SDS011;10238;49.556;10.956;2022-11-24T04:01:07;13.65;;;2.40;;
20154;SDS011;10238;49.556;10.956;2022-11-24T04:03:55;6.28;;;2.20;;
20154;SDS011;10238;49.556;10.956;2022-11-24T04:06:43;12.10;;;2.28;;
20154;SDS011;10238;49.556;10.956;2022-11-24T04:09:32;6.30;;;1.77;;
20154;SDS011;10238;49.556;10.956;2022-11-24T04:12:23;6.30;;;2.30;;
20154;SDS011;10238;49.556;10.956;2022-11-24T04:15:26;9.40;;;2.50;;
20154;SDS011;10238;49.556;10.956;2022-11-24T04:18:14;8.57;;;2.30;;
20154;SDS011;10238;49.556;10.956;2022-11-24T04:21:02;8.00;;;2.55;;
20154;SDS011;10238;49.556;10.956;2022-11-24T04:23:53;6.80;;;2.20;;
20154;SDS011;10238;49.556;10.956;2022-11-24T04:26:42;6.88;;;2.53;;
20154;SDS011;10238;49.556;10.956;2022-11-24T04:29:30;11.98;;;2.50;;
20154;SDS011;10238;49.556;10.956;2022-11-24T04:32:18;10.90;;;2.50;;
20154;SDS011;10238;49.556;10.956;2022-11-24T04:35:09;9.55;;;2.58;;
20154;SDS011;10238;49.556;10.956;2022-11-24T04:38:00;11.00;;;2.60;;
20154;SDS011;10238;49.556;10.956;2022-11-24T04:40:48;7.05;;;3.05;;
20154;SDS011;10238;49.556;10.956;2022-11-24T04:43:40;9.93;;;3.38;;
20154;SDS011;10238;49.556;10.956;2022-11-24T04:46:29;8.20;;;2.50;;
20154;SDS011;10238;49.556;10.956;2022-11-24T04:49:17;6.80;;;2.85;;
20154;SDS011;10238;49.556;10.956;2022-11-24T04:52:07;11.18;;;3.25;;
20154;SDS011;10238;49.556;10.956;2022-11-24T04:54:55;10.40;;;3.25;;
20154;SDS011;10238;49.556;10.956;2022-11-24T04:57:43;12.23;;;3.83;;
20154;SDS011;10238;49.556;10.956;2022-11-24T05:00:32;11.85;;;3.08;;
20154;SDS011;10238;49.556;10.956;2022-11-24T05:03:20;15.38;;;4.25;;
20154;SDS011;10238;49.556;10.956;2022-11-24T05:06:08;9.73;;;3.08;;
20154;SDS011;10238;49.556;10.956;2022-11-24T05:08:56;13.98;;;3.28;;
20154;SDS011;10238;49.556;10.956;2022-11-24T05:11:44;9.18;;;3.08;;
20154;SDS011;10238;49.556;10.956;2022-11-24T05:14:34;10.65;;;3.25;;
20154;SDS011;10238;49.556;10.956;2022-11-24T05:17:26;10.20;;;3.05;;
20154;SDS011;10238;49.556;10.956;2022-11-24T05:20:15;7.03;;;2.92;;
20154;SDS011;10238;49.556;10.956;2022-11-24T05:23:06;12.32;;;3.05;;
20154;SDS011;10238;49.556;10.956;2022-11-24T05:25:57;14.55;;;3.22;;
20154;SDS011;10238;49.556;10.956;2022-11-24T05:28:45;9.43;;;2.85;;
20154;SDS011;10238;49.556;10.956;2022-11-24T05:31:36;11.20;;;2.92;;
20154;SDS011;10238;49.556;10.956;2022-11-24T05:34:25;10.95;;;2.97;;
20154;SDS011;10238;49.556;10.956;2022-11-24T05:37:17;11.15;;;2.85;;
20154;SDS011;10238;49.556;10.956;2022-11-24T05:40:06;8.48;;;2.80;;
20154;SDS011;10238;49.556;10.956;2022-11-24T05:42:55;14.52;;;2.92;;
20154;SDS011;10238;49.556;10.956;2022-11-24T05:45:44;9.57;;;3.00;;
20154;SDS011;10238;49.556;10.956;2022-11-24T05:48:31;7.60;;;2.45;;
20154;SDS011;10238;49.556;10.956;2022-11-24T05:51:23;8.32;;;2.53;;
20154;SDS011;10238;49.556;10.956;2022-11-24T05:54:11;11.68;;;3.42;;
20154;SDS011;10238;49.556;10.956;2022-11-24T05:56:59;10.43;;;2.33;;
20154;SDS011;10238;49.556;10.956;2022-11-24T05:59:47;6.45;;;2.38;;
20154;SDS011;10238;49.556;10.956;2022-11-24T06:02:38;11.82;;;3.58;;
20154;SDS011;10238;49.556;10.956;2022-11-24T06:05:27;9.93;;;2.83;;
20154;SDS011;10238;49.556;10.956;2022-11-24T06:08:17;10.15;;;2.92;;
20154;SDS011;10238;49.556;10.956;2022-11-24T06:11:05;9.48;;;3.20;;
20154;SDS011;10238;49.556;10.956;2022-11-24T06:14:03;9.85;;;2.45;;
20154;SDS011;10238;49.556;10.956;2022-11-24T06:16:56;10.55;;;2.60;;
20154;SDS011;10238;49.556;10.956;2022-11-24T06:19:44;10.32;;;3.03;;
20154;SDS011;10238;49.556;10.956;2022-11-24T06:22:36;10.10;;;2.95;;
20154;SDS011;10238;49.556;10.956;2022-11-24T06:25:36;9.38;;;2.55;;
20154;SDS011;10238;49.556;10.956;2022-11-24T06:28:26;8.32;;;2.63;;
20154;SDS011;10238;49.556;10.956;2022-11-24T06:31:14;10.80;;;2.40;;
20154;SDS011;10238;49.556;10.956;2022-11-24T06:34:04;10.35;;;2.70;;
20154;SDS011;10238;49.556;10.956;2022-11-24T06:36:59;8.63;;;2.45;;
20154;SDS011;10238;49.556;10.956;2022-11-24T06:39:47;8.13;;;2.35;;
20154;SDS011;10238;49.556;10.956;2022-11-24T06:42:36;9.32;;;2.50;;
20154;SDS011;10238;49.556;10.956;2022-11-24T06:45:25;9.65;;;2.50;;
20154;SDS011;10238;49.556;10.956;2022-11-24T06:48:15;9.38;;;2.20;;
20154;SDS011;10238;49.556;10.956;2022-11-24T06:51:05;10.57;;;2.80;;
20154;SDS011;10238;49.556;10.956;2022-11-24T06:53:54;10.52;;;2.67;;
20154;SDS011;10238;49.556;10.956;2022-11-24T06:56:42;8.10;;;2.50;;
20154;SDS011;10238;49.556;10.956;2022-11-24T06:59:36;6.75;;;2.70;;
20154;SDS011;10238;49.556;10.956;2022-11-24T07:02:24;8.75;;;2.67;;
20154;SDS011;10238;49.556;10.956;2022-11-24T07:05:15;7.88;;;2.45;;
20154;SDS011;10238;49.556;10.956;2022-11-24T07:08:11;10.27;;;2.30;;
20154;SDS011;10238;49.556;10.956;2022-11-24T07:11:03;15.00;;;2.95;;
20154;SDS011;10238;49.556;10.956;2022-11-24T07:13:56;7.27;;;2.37;;
20154;SDS011;10238;49.556;10.956;2022-11-24T07:16:47;11.95;;;2.67;;
20154;SDS011;10238;49.556;10.956;2022-11-24T07:19:44;10.23;;;2.97;;
20154;SDS011;10238;49.556;10.956;2022-11-24T07:22:36;6.13;;;2.20;;
20154;SDS011;10238;49.556;10.956;2022-11-24T07:25:24;6.72;;;2.55;;
20154;SDS011;10238;49.556;10.956;2022-11-24T07:28:13;7.75;;;2.35;;
20154;SDS011;10238;49.556;10.956;2022-11-24T07:31:03;9.73;;;2.42;;
20154;SDS011;10238;49.556;10.956;2022-11-24T07:33:55;5.85;;;1.98;;
20154;SDS011;10238;49.556;10.956;2022-11-24T07:36:44;6.97;;;1.98;;
20154;SDS011;10238;49.556;10.956;2022-11-24T07:39:35;4.30;;;2.15;;
20154;SDS011;10238;49.556;10.956;2022-11-24T07:42:23;11.38;;;3.05;;
20154;SDS011;10238;49.556;10.956;2022-11-24T07:45:11;11.38;;;2.65;;
20154;SDS011;10238;49.556;10.956;2022-11-24T07:48:01;7.97;;;2.63;;
20154;SDS011;10238;49.556;10.956;2022-11-24T07:50:54;7.55;;;2.55;;
20154;SDS011;10238;49.556;10.956;2022-11-24T07:53:50;6.18;;;2.08;;
20154;SDS011;10238;49.556;10.956;2022-11-24T07:56:41;4.80;;;2.50;;
20154;SDS011;10238;49.556;10.956;2022-11-24T07:59:31;6.72;;;2.15;;
20154;SDS011;10238;49.556;10.956;2022-11-24T08:02:19;7.75;;;2.38;;
20154;SDS011;10238;49.556;10.956;2022-11-24T08:05:07;7.28;;;2.22;;
20154;SDS011;10238;49.556;10.956;2022-11-24T08:07:56;12.18;;;2.90;;
20154;SDS011;10238;49.556;10.956;2022-11-24T08:10:49;6.93;;;2.47;;
20154;SDS011;10238;49.556;10.956;2022-11-24T08:13:38;6.25;;;2.25;;
20154;SDS011;10238;49.556;10.956;2022-11-24T08:16:28;10.02;;;2.45;;
20154;SDS011;10238;49.556;10.956;2022-11-24T08:19:16;7.78;;;1.92;;
20154;SDS011;10238;49.556;10.956;2022-11-24T08:22:04;8.18;;;2.00;;
20154;SDS011;10238;49.556;10.956;2022-11-24T08:24:54;6.13;;;2.22;;
20154;SDS011;10238;49.556;10.956;2022-11-24T08:27:41;6.57;;;2.03;;
20154;SDS011;10238;49.556;10.956;2022-11-24T08:30:30;9.07;;;3.25;;
20154;SDS011;10238;49.556;10.956;2022-11-24T08:33:22;9.80;;;2.72;;
20154;SDS011;10238;49.556;10.956;2022-11-24T08:36:11;8.00;;;3.38;;
20154;SDS011;10238;49.556;10.956;2022-11-24T08:39:02;4.82;;;1.98;;
20154;SDS011;10238;49.556;10.956;2022-11-24T08:41:51;8.70;;;2.10;;
20154;SDS011;10238;49.556;10.956;2022-11-24T08:44:40;7.20;;;2.25;;
20154;SDS011;10238;49.556;10.956;2022-11-24T08:47:29;5.65;;;1.92;;
20154;SDS011;10238;49.556;10.956;2022-11-24T08:50:18;7.07;;;1.60;;
20154;SDS011;10238;49.556;10.956;2022-11-24T08:53:06;8.95;;;2.20;;
20154;SDS011;10238;49.556;10.956;2022-11-24T08:55:57;6.22;;;2.13;;
20154;SDS011;10238;49.556;10.956;2022-11-24T08:58:49;11.18;;;2.65;;
20154;SDS011;10238;49.556;10.956;2022-11-24T09:01:37;5.90;;;2.50;;
20154;SDS011;10238;49.556;10.956;2022-11-24T09:04:26;7.07;;;2.72;;
20154;SDS011;10238;49.556;10.956;2022-11-24T09:07:14;7.95;;;1.92;;
20154;SDS011;10238;49.556;10.956;2022-11-24T09:10:02;8.55;;;2.13;;
20154;SDS011;10238;49.556;10.956;2022-11-24T09:12:52;5.35;;;1.80;;
20154;SDS011;10238;49.556;10.956;2022-11-24T09:15:41;6.47;;;2.00;;
20154;SDS011;10238;49.556;10.956;2022-11-24T09:18:29;8.35;;;2.50;;
20154;SDS011;10238;49.556;10.956;2022-11-24T09:21:20;8.52;;;2.20;;
20154;SDS011;10238;49.556;10.956;2022-11-24T09:24:08;3.58;;;1.80;;
20154;SDS011;10238;49.556;10.956;2022-11-24T09:26:56;5.55;;;2.53;;
20154;SDS011;10238;49.556;10.956;2022-11-24T09:29:44;4.15;;;1.98;;
20154;SDS011;10238;49.556;10.956;2022-11-24T09:32:34;7.47;;;2.47;;
20154;SDS011;10238;49.556;10.956;2022-11-24T09:35:22;9.75;;;2.33;;
20154;SDS011;10238;49.556;10.956;2022-11-24T09:38:11;8.02;;;2.00;;
20154;SDS011;10238;49.556;10.956;2022-11-24T09:41:04;5.57;;;2.13;;
20154;SDS011;10238;49.556;10.956;2022-11-24T09:47:36;6.45;;;2.13;;
20154;SDS011;10238;49.556;10.956;2022-11-24T09:50:33;5.90;;;2.13;;
20154;SDS011;10238;49.556;10.956;2022-11-24T09:53:24;6.45;;;2.22;;
20154;SDS011;10238;49.556;10.956;2022-11-24T09:56:23;6.10;;;2.10;;
20154;SDS011;10238;49.556;10.956;2022-11-24T09:59:26;4.72;;;2.25;;
20154;SDS011;10238;49.556;10.956;2022-11-24T10:02:19;8.30;;;2.22;;
20154;SDS011;10238;49.556;10.956;2022-11-24T10:05:10;5.28;;;1.88;;
20154;SDS011;10238;49.556;10.956;2022-11-24T10:08:02;5.57;;;1.70;;
20154;SDS011;10238;49.556;10.956;2022-11-24T10:11:03;6.70;;;1.90;;
20154;SDS011;10238;49.556;10.956;2022-11-24T10:14:03;6.93;;;2.67;;
20154;SDS011;10238;49.556;10.956;2022-11-24T10:17:14;7.82;;;2.13;;
20154;SDS011;10238;49.556;10.956;2022-11-24T10:20:17;7.10;;;2.92;;
20154;SDS011;10238;49.556;10.956;2022-11-24T10:23:15;4.35;;;1.38;;
20154;SDS011;10238;49.556;10.956;2022-11-24T10:26:29;2.78;;;1.65;;
20154;SDS011;10238;49.556;10.956;2022-11-24T10:29:25;5.70;;;1.80;;
20154;SDS011;10238;49.556;10.956;2022-11-24T10:32:20;4.55;;;1.52;;
20154;SDS011;10238;49.556;10.956;2022-11-24T10:35:15;4.47;;;1.80;;
20154;SDS011;10238;49.556;10.956;2022-11-24T10:41:45;3.97;;;1.65;;
20154;SDS011;10238;49.556;10.956;2022-11-24T10:45:01;8.32;;;1.85;;
20154;SDS011;10238;49.556;10.956;2022-11-24T10:52:01;5.43;;;1.90;;
20154;SDS011;10238;49.556;10.956;2022-11-24T10:54:54;3.90;;;1.50;;
20154;SDS011;10238;49.556;10.956;2022-11-24T10:57:44;4.20;;;1.70;;
20154;SDS011;10238;49.556;10.956;2022-11-24T11:00:32;5.20;;;1.33;;
20154;SDS011;10238;49.556;10.956;2022-11-24T11:03:24;3.28;;;2.42;;
20154;SDS011;10238;49.556;10.956;2022-11-24T11:06:13;2.03;;;1.58;;
20154;SDS011;10238;49.556;10.956;2022-11-24T11:09:19;4.47;;;1.63;;
20154;SDS011;10238;49.556;10.956;2022-11-24T11:15:29;2.50;;;1.63;;
20154;SDS011;10238;49.556;10.956;2022-11-24T11:18:17;4.07;;;1.67;;
20154;SDS011;10238;49.556;10.956;2022-11-24T11:21:06;6.38;;;1.73;;
20154;SDS011;10238;49.556;10.956;2022-11-24T11:24:13;2.55;;;1.80;;
20154;SDS011;10238;49.556;10.956;2022-11-24T11:27:08;3.95;;;1.55;;
20154;SDS011;10238;49.556;10.956;2022-11-24T11:30:15;2.17;;;1.70;;
20154;SDS011;10238;49.556;10.956;2022-11-24T11:33:30;3.70;;;1.48;;
20154;SDS011;10238;49.556;10.956;2022-11-24T11:36:41;4.25;;;1.60;;
20154;SDS011;10238;49.556;10.956;2022-11-24T11:39:35;7.35;;;1.98;;
20154;SDS011;10238;49.556;10.956;2022-11-24T11:42:36;5.53;;;1.70;;
20154;SDS011;10238;49.556;10.956;2022-11-24T11:45:52;4.00;;;1.67;;
20154;SDS011;10238;49.556;10.956;2022-11-24T11:48:47;5.60;;;2.85;;
20154;SDS011;10238;49.556;10.956;2022-11-24T11:51:44;4.13;;;1.58;;
20154;SDS011;10238;49.556;10.956;2022-11-24T11:55:05;3.88;;;1.83;;
20154;SDS011;10238;49.556;10.956;2022-11-24T11:58:25;2.22;;;1.40;;
20154;SDS011;10238;49.556;10.956;2022-11-24T12:01:33;3.17;;;1.42;;
20154;SDS011;10238;49.556;10.956;2022-11-24T12:04:40;3.80;;;1.50;;
20154;SDS011;10238;49.556;10.956;2022-11-24T12:07:49;2.75;;;1.40;;
20154;SDS011;10238;49.556;10.956;2022-11-24T12:11:16;2.35;;;1.65;;
20154;SDS011;10238;49.556;10.956;2022-11-24T12:14:20;3.63;;;1.50;;
20154;SDS011;10238;49.556;10.956;2022-11-24T12:17:27;4.10;;;1.52;;
20154;SDS011;10238;49.556;10.956;2022-11-24T12:20:31;4.25;;;1.45;;
20154;SDS011;10238;49.556;10.956;2022-11-24T12:23:43;3.78;;;2.00;;
20154;SDS011;10238;49.556;10.956;2022-11-24T12:26:44;4.65;;;1.92;;
20154;SDS011;10238;49.556;10.956;2022-11-24T12:32:57;3.55;;;1.50;;
20154;SDS011;10238;49.556;10.956;2022-11-24T12:36:01;3.65;;;1.50;;
20154;SDS011;10238;49.556;10.956;2022-11-24T12:38:57;4.45;;;1.70;;
20154;SDS011;10238;49.556;10.956;2022-11-24T12:41:55;4.43;;;1.80;;
20154;SDS011;10238;49.556;10.956;2022-11-24T12:44:58;5.50;;;1.85;;
20154;SDS011;10238;49.556;10.956;2022-11-24T12:48:06;3.38;;;1.80;;
20154;SDS011;10238;49.556;10.956;2022-11-24T12:51:12;6.15;;;2.03;;
20154;SDS011;10238;49.556;10.956;2022-11-24T12:54:08;9.05;;;2.40;;
20154;SDS011;10238;49.556;10.956;2022-11-24T12:57:03;5.55;;;2.20;;
20154;SDS011;10238;49.556;10.956;2022-11-24T12:59:59;3.83;;;2.25;;
20154;SDS011;10238;49.556;10.956;2022-11-24T13:03:00;5.75;;;1.90;;
20154;SDS011;10238;49.556;10.956;2022-11-24T13:06:00;4.65;;;2.30;;
20154;SDS011;10238;49.556;10.956;2022-11-24T13:08:53;3.28;;;2.28;;
20154;SDS011;10238;49.556;10.956;2022-11-24T13:11:44;6.07;;;2.03;;
20154;SDS011;10238;49.556;10.956;2022-11-24T13:14:35;3.63;;;2.20;;
20154;SDS011;10238;49.556;10.956;2022-11-24T13:17:28;6.30;;;1.92;;
20154;SDS011;10238;49.556;10.956;2022-11-24T13:20:41;5.03;;;2.05;;
20154;SDS011;10238;49.556;10.956;2022-11-24T13:23:30;5.50;;;2.40;;
20154;SDS011;10238;49.556;10.956;2022-11-24T13:26:43;5.10;;;2.60;;
20154;SDS011;10238;49.556;10.956;2022-11-24T13:29:41;5.18;;;3.00;;
20154;SDS011;10238;49.556;10.956;2022-11-24T13:39:22;6.43;;;2.92;;
20154;SDS011;10238;49.556;10.956;2022-11-24T13:43:17;4.22;;;2.00;;
20154;SDS011;10238;49.556;10.956;2022-11-24T13:46:07;4.47;;;2.50;;
20154;SDS011;10238;49.556;10.956;2022-11-24T13:55:26;8.32;;;3.20;;
20154;SDS011;10238;49.556;10.956;2022-11-24T13:58:29;8.00;;;3.47;;
20154;SDS011;10238;49.556;10.956;2022-11-24T14:01:26;11.25;;;3.55;;
20154;SDS011;10238;49.556;10.956;2022-11-24T14:04:22;6.78;;;3.35;;
20154;SDS011;10238;49.556;10.956;2022-11-24T14:07:28;6.80;;;2.75;;
20154;SDS011;10238;49.556;10.956;2022-11-24T14:10:18;10.00;;;3.67;;
20154;SDS011;10238;49.556;10.956;2022-11-24T14:13:26;6.97;;;2.63;;
20154;SDS011;10238;49.556;10.956;2022-11-24T14:19:09;5.80;;;2.50;;
20154;SDS011;10238;49.556;10.956;2022-11-24T14:21:56;4.35;;;2.30;;
20154;SDS011;10238;49.556;10.956;2022-11-24T14:24:45;8.27;;;2.22;;
20154;SDS011;10238;49.556;10.956;2022-11-24T14:27:38;4.75;;;2.28;;
20154;SDS011;10238;49.556;10.956;2022-11-24T14:30:27;6.13;;;2.05;;
20154;SDS011;10238;49.556;10.956;2022-11-24T14:33:34;3.75;;;1.83;;
20154;SDS011;10238;49.556;10.956;2022-11-24T14:36:34;4.00;;;2.10;;
20154;SDS011;10238;49.556;10.956;2022-11-24T14:39:23;9.93;;;2.70;;
20154;SDS011;10238;49.556;10.956;2022-11-24T14:42:17;4.53;;;2.47;;
20154;SDS011;10238;49.556;10.956;2022-11-24T14:45:18;6.10;;;2.38;;
20154;SDS011;10238;49.556;10.956;2022-11-24T14:48:15;3.72;;;2.70;;
20154;SDS011;10238;49.556;10.956;2022-11-24T14:51:18;5.63;;;2.10;;
20154;SDS011;10238;49.556;10.956;2022-11-24T14:54:20;6.47;;;2.53;;
20154;SDS011;10238;49.556;10.956;2022-11-24T14:57:19;4.35;;;2.30;;
20154;SDS011;10238;49.556;10.956;2022-11-24T15:00:15;5.63;;;2.05;;
20154;SDS011;10238;49.556;10.956;2022-11-24T15:03:16;5.65;;;2.17;;
20154;SDS011;10238;49.556;10.956;2022-11-24T15:06:10;3.08;;;1.80;;
20154;SDS011;10238;49.556;10.956;2022-11-24T15:09:03;1.55;;;1.45;;
20154;SDS011;10238;49.556;10.956;2022-11-24T15:11:54;2.50;;;1.40;;
20154;SDS011;10238;49.556;10.956;2022-11-24T15:15:02;5.32;;;1.65;;
20154;SDS011;10238;49.556;10.956;2022-11-24T15:17:52;3.10;;;1.70;;
20154;SDS011;10238;49.556;10.956;2022-11-24T15:20:45;5.07;;;2.10;;
20154;SDS011;10238;49.556;10.956;2022-11-24T15:23:34;6.53;;;2.05;;
20154;SDS011;10238;49.556;10.956;2022-11-24T15:26:22;2.55;;;1.77;;
20154;SDS011;10238;49.556;10.956;2022-11-24T15:29:26;2.90;;;1.63;;
20154;SDS011;10238;49.556;10.956;2022-11-24T15:32:13;6.15;;;1.80;;
20154;SDS011;10238;49.556;10.956;2022-11-24T15:35:02;4.97;;;1.80;;
20154;SDS011;10238;49.556;10.956;2022-11-24T15:37:55;3.70;;;1.70;;
20154;SDS011;10238;49.556;10.956;2022-11-24T15:40:46;5.30;;;1.60;;
20154;SDS011;10238;49.556;10.956;2022-11-24T15:46:26;3.58;;;1.60;;
20154;SDS011;10238;49.556;10.956;2022-11-24T15:49:28;3.10;;;1.55;;
20154;SDS011;10238;49.556;10.956;2022-11-24T15:52:18;5.13;;;1.88;;
20154;SDS011;10238;49.556;10.956;2022-11-24T15:55:08;4.40;;;2.38;;
20154;SDS011;10238;49.556;10.956;2022-11-24T15:58:03;3.05;;;1.98;;
20154;SDS011;10238;49.556;10.956;2022-11-24T16:00:51;6.40;;;2.25;;
20154;SDS011;10238;49.556;10.956;2022-11-24T16:03:42;3.92;;;2.00;;
20154;SDS011;10238;49.556;10.956;2022-11-24T16:09:21;6.28;;;2.30;;
20154;SDS011;10238;49.556;10.956;2022-11-24T16:12:09;4.63;;;2.25;;
20154;SDS011;10238;49.556;10.956;2022-11-24T16:14:57;5.70;;;2.17;;
20154;SDS011;10238;49.556;10.956;2022-11-24T16:17:45;4.93;;;2.15;;
20154;SDS011;10238;49.556;10.956;2022-11-24T16:20:34;5.90;;;2.10;;
20154;SDS011;10238;49.556;10.956;2022-11-24T16:23:22;2.05;;;1.80;;
20154;SDS011;10238;49.556;10.956;2022-11-24T16:26:11;4.40;;;2.70;;
20154;SDS011;10238;49.556;10.956;2022-11-24T16:28:59;4.65;;;2.13;;
20154;SDS011;10238;49.556;10.956;2022-11-24T16:31:47;4.47;;;1.90;;
20154;SDS011;10238;49.556;10.956;2022-11-24T16:34:36;2.58;;;1.70;;
20154;SDS011;10238;49.556;10.956;2022-11-24T16:37:26;7.30;;;2.33;;
20154;SDS011;10238;49.556;10.956;2022-11-24T16:40:16;4.10;;;1.90;;
20154;SDS011;10238;49.556;10.956;2022-11-24T16:43:06;2.92;;;1.88;;
20154;SDS011;10238;49.556;10.956;2022-11-24T16:45:58;3.47;;;2.20;;
20154;SDS011;10238;49.556;10.956;2022-11-24T16:48:53;3.38;;;2.08;;
20154;SDS011;10238;49.556;10.956;2022-11-24T16:51:44;6.10;;;2.07;;
20154;SDS011;10238;49.556;10.956;2022-11-24T16:54:34;4.13;;;2.00;;
20154;SDS011;10238;49.556;10.956;2022-11-24T16:57:22;4.35;;;2.55;;
20154;SDS011;10238;49.556;10.956;2022-11-24T17:00:10;5.10;;;3.13;;
20154;SDS011;10238;49.556;10.956;2022-11-24T17:03:02;5.10;;;2.50;;
20154;SDS011;10238;49.556;10.956;2022-11-24T17:05:55;3.42;;;2.97;;
20154;SDS011;10238;49.556;10.956;2022-11-24T17:08:46;8.05;;;2.95;;
20154;SDS011;10238;49.556;10.956;2022-11-24T17:11:36;7.18;;;3.47;;
20154;SDS011;10238;49.556;10.956;2022-11-24T17:14:24;5.47;;;3.03;;
20154;SDS011;10238;49.556;10.956;2022-11-24T17:17:12;8.48;;;3.35;;
20154;SDS011;10238;49.556;10.956;2022-11-24T17:20:03;10.13;;;3.90;;
20154;SDS011;10238;49.556;10.956;2022-11-24T17:23:18;7.95;;;3.95;;
20154;SDS011;10238;49.556;10.956;2022-11-24T17:26:11;10.25;;;3.80;;
20154;SDS011;10238;49.556;10.956;2022-11-24T17:29:05;7.05;;;3.40;;
20154;SDS011;10238;49.556;10.956;2022-11-24T17:31:53;5.28;;;3.20;;
20154;SDS011;10238;49.556;10.956;2022-11-24T17:34:41;7.22;;;3.67;;
20154;SDS011;10238;49.556;10.956;2022-11-24T17:37:29;4.53;;;3.30;;
20154;SDS011;10238;49.556;10.956;2022-11-24T17:40:17;6.38;;;3.42;;
20154;SDS011;10238;49.556;10.956;2022-11-24T17:43:18;4.90;;;3.08;;
20154;SDS011;10238;49.556;10.956;2022-11-24T17:46:10;7.55;;;3.53;;
20154;SDS011;10238;49.556;10.956;2022-11-24T17:49:00;6.28;;;3.15;;
20154;SDS011;10238;49.556;10.956;2022-11-24T17:51:48;6.80;;;3.25;;
20154;SDS011;10238;49.556;10.956;2022-11-24T17:54:38;7.68;;;3.70;;
20154;SDS011;10238;49.556;10.956;2022-11-24T17:57:31;5.68;;;3.72;;
20154;SDS011;10238;49.556;10.956;2022-11-24T18:00:20;5.32;;;3.13;;
20154;SDS011;10238;49.556;10.956;2022-11-24T18:03:11;6.78;;;3.25;;
20154;SDS011;10238;49.556;10.956;2022-11-24T18:06:03;6.03;;;3.20;;